<?xml version="1.0" encoding="UTF-8" standalone="no" ?>
<gpx xmlns="http://www.topografix.com/GPX/1/1" xmlns:xsi="http://www.w3.org/2001/XMLSchema-instance" xsi:schemaLocation="http://www.topografix.com/GPX/1/1 http://www.topografix.com/GPX/1/1/gpx.xsd" version="1.1" creator="VisuGPX - https://www.visugpx.com">
  <metadata>
    <name>ddddd</name>
    <desc><![CDATA[dddddddddddddddddddddddd]]></desc>
  </metadata>
  <trk>
    <name><![CDATA[Sportrate Track]]></name>
    <trkseg>
      <trkpt lat="46.393" lon="5.70302">
        <ele>675.3</ele>
        <time>2014-04-30T11:16:38.192Z</time>
      </trkpt>
      <trkpt lat="46.393" lon="5.70302">
        <ele>675.3</ele>
        <time>2014-04-30T11:16:41.160Z</time>
      </trkpt>
      <trkpt lat="46.393" lon="5.70302">
        <ele>675.2</ele>
        <time>2014-04-30T11:16:44.165Z</time>
      </trkpt>
      <trkpt lat="46.393" lon="5.70302">
        <ele>675.2</ele>
        <time>2014-04-30T11:16:47.158Z</time>
      </trkpt>
      <trkpt lat="46.393" lon="5.70302">
        <ele>675.1</ele>
        <time>2014-04-30T11:16:50.145Z</time>
      </trkpt>
      <trkpt lat="46.393" lon="5.70302">
        <ele>675.1</ele>
        <time>2014-04-30T11:16:53.200Z</time>
      </trkpt>
      <trkpt lat="46.393" lon="5.70302">
        <ele>675.2</ele>
        <time>2014-04-30T11:16:56.151Z</time>
      </trkpt>
      <trkpt lat="46.39301" lon="5.70302">
        <ele>675.3</ele>
        <time>2014-04-30T11:16:59.208Z</time>
      </trkpt>
      <trkpt lat="46.39301" lon="5.70301">
        <ele>675.2</ele>
        <time>2014-04-30T11:17:02.152Z</time>
      </trkpt>
      <trkpt lat="46.39301" lon="5.70301">
        <ele>675.3</ele>
        <time>2014-04-30T11:17:05.213Z</time>
      </trkpt>
      <trkpt lat="46.39303" lon="5.70298">
        <ele>676</ele>
        <time>2014-04-30T11:17:08.184Z</time>
      </trkpt>
      <trkpt lat="46.39304" lon="5.70297">
        <ele>676.2</ele>
        <time>2014-04-30T11:17:11.212Z</time>
      </trkpt>
      <trkpt lat="46.39304" lon="5.70297">
        <ele>676.1</ele>
        <time>2014-04-30T11:17:14.197Z</time>
      </trkpt>
      <trkpt lat="46.39304" lon="5.70297">
        <ele>676.1</ele>
        <time>2014-04-30T11:17:17.145Z</time>
      </trkpt>
      <trkpt lat="46.39304" lon="5.70297">
        <ele>676</ele>
        <time>2014-04-30T11:17:20.194Z</time>
      </trkpt>
      <trkpt lat="46.39304" lon="5.70297">
        <ele>676</ele>
        <time>2014-04-30T11:17:23.147Z</time>
      </trkpt>
      <trkpt lat="46.39304" lon="5.70297">
        <ele>676</ele>
        <time>2014-04-30T11:17:26.171Z</time>
      </trkpt>
      <trkpt lat="46.39189" lon="5.70126">
        <ele>690.4</ele>
        <time>2014-04-30T11:24:10.249Z</time>
      </trkpt>
      <trkpt lat="46.39173" lon="5.70135">
        <ele>689.3</ele>
        <time>2014-04-30T11:24:13.332Z</time>
      </trkpt>
      <trkpt lat="46.39178" lon="5.70167">
        <ele>686.2</ele>
        <time>2014-04-30T11:24:16.162Z</time>
      </trkpt>
      <trkpt lat="46.39179" lon="5.70189">
        <ele>686</ele>
        <time>2014-04-30T11:24:19.300Z</time>
      </trkpt>
      <trkpt lat="46.39176" lon="5.70193">
        <ele>686.8</ele>
        <time>2014-04-30T11:24:22.146Z</time>
      </trkpt>
      <trkpt lat="46.39172" lon="5.7019">
        <ele>685.4</ele>
        <time>2014-04-30T11:24:25.257Z</time>
      </trkpt>
      <trkpt lat="46.39162" lon="5.70174">
        <ele>685.8</ele>
        <time>2014-04-30T11:24:28.253Z</time>
      </trkpt>
      <trkpt lat="46.39147" lon="5.70148">
        <ele>687.1</ele>
        <time>2014-04-30T11:24:31.260Z</time>
      </trkpt>
      <trkpt lat="46.39132" lon="5.70116">
        <ele>685</ele>
        <time>2014-04-30T11:24:34.244Z</time>
      </trkpt>
      <trkpt lat="46.39117" lon="5.7008">
        <ele>685.3</ele>
        <time>2014-04-30T11:24:37.245Z</time>
      </trkpt>
      <trkpt lat="46.39103" lon="5.70042">
        <ele>685.3</ele>
        <time>2014-04-30T11:24:40.245Z</time>
      </trkpt>
      <trkpt lat="46.39085" lon="5.70008">
        <ele>684.2</ele>
        <time>2014-04-30T11:24:43.240Z</time>
      </trkpt>
      <trkpt lat="46.39068" lon="5.69978">
        <ele>682.5</ele>
        <time>2014-04-30T11:24:46.256Z</time>
      </trkpt>
      <trkpt lat="46.39062" lon="5.69969">
        <ele>682</ele>
        <time>2014-04-30T11:24:47.244Z</time>
      </trkpt>
      <trkpt lat="46.39062" lon="5.69969">
        <ele>682</ele>
        <time>2014-04-30T11:24:50.234Z</time>
      </trkpt>
      <trkpt lat="46.39009" lon="5.69924">
        <ele>678.7</ele>
        <time>2014-04-30T11:24:53.251Z</time>
      </trkpt>
      <trkpt lat="46.38978" lon="5.69916">
        <ele>677.4</ele>
        <time>2014-04-30T11:24:56.236Z</time>
      </trkpt>
      <trkpt lat="46.38947" lon="5.69911">
        <ele>676</ele>
        <time>2014-04-30T11:24:59.240Z</time>
      </trkpt>
      <trkpt lat="46.38913" lon="5.69922">
        <ele>678</ele>
        <time>2014-04-30T11:25:02.260Z</time>
      </trkpt>
      <trkpt lat="46.38885" lon="5.69929">
        <ele>676.5</ele>
        <time>2014-04-30T11:25:05.235Z</time>
      </trkpt>
      <trkpt lat="46.3886" lon="5.69934">
        <ele>675.1</ele>
        <time>2014-04-30T11:25:08.235Z</time>
      </trkpt>
      <trkpt lat="46.38835" lon="5.69938">
        <ele>674.6</ele>
        <time>2014-04-30T11:25:11.235Z</time>
      </trkpt>
      <trkpt lat="46.38808" lon="5.69907">
        <ele>669.2</ele>
        <time>2014-04-30T11:25:14.243Z</time>
      </trkpt>
      <trkpt lat="46.38774" lon="5.6988">
        <ele>664.6</ele>
        <time>2014-04-30T11:25:17.236Z</time>
      </trkpt>
      <trkpt lat="46.38737" lon="5.6985">
        <ele>662.9</ele>
        <time>2014-04-30T11:25:20.239Z</time>
      </trkpt>
      <trkpt lat="46.387" lon="5.69819">
        <ele>661.5</ele>
        <time>2014-04-30T11:25:23.262Z</time>
      </trkpt>
      <trkpt lat="46.38657" lon="5.69799">
        <ele>659.6</ele>
        <time>2014-04-30T11:25:29.250Z</time>
      </trkpt>
      <trkpt lat="46.38569" lon="5.69801">
        <ele>652</ele>
        <time>2014-04-30T11:25:32.267Z</time>
      </trkpt>
      <trkpt lat="46.38525" lon="5.69793">
        <ele>651.7</ele>
        <time>2014-04-30T11:25:35.239Z</time>
      </trkpt>
      <trkpt lat="46.38487" lon="5.69758">
        <ele>648.2</ele>
        <time>2014-04-30T11:25:38.236Z</time>
      </trkpt>
      <trkpt lat="46.38444" lon="5.69721">
        <ele>645.6</ele>
        <time>2014-04-30T11:25:41.244Z</time>
      </trkpt>
      <trkpt lat="46.38403" lon="5.6968">
        <ele>638.7</ele>
        <time>2014-04-30T11:25:44.237Z</time>
      </trkpt>
      <trkpt lat="46.38371" lon="5.69624">
        <ele>632</ele>
        <time>2014-04-30T11:25:47.257Z</time>
      </trkpt>
      <trkpt lat="46.38348" lon="5.69558">
        <ele>627.6</ele>
        <time>2014-04-30T11:25:50.246Z</time>
      </trkpt>
      <trkpt lat="46.38322" lon="5.69498">
        <ele>623.1</ele>
        <time>2014-04-30T11:25:53.236Z</time>
      </trkpt>
      <trkpt lat="46.38283" lon="5.69462">
        <ele>618.8</ele>
        <time>2014-04-30T11:25:56.273Z</time>
      </trkpt>
      <trkpt lat="46.38243" lon="5.69446">
        <ele>615.1</ele>
        <time>2014-04-30T11:25:59.441Z</time>
      </trkpt>
      <trkpt lat="46.38215" lon="5.69472">
        <ele>613.7</ele>
        <time>2014-04-30T11:26:02.244Z</time>
      </trkpt>
      <trkpt lat="46.38215" lon="5.69516">
        <ele>614.2</ele>
        <time>2014-04-30T11:26:05.335Z</time>
      </trkpt>
      <trkpt lat="46.38215" lon="5.69516">
        <ele>614.2</ele>
        <time>2014-04-30T11:26:08.234Z</time>
      </trkpt>
      <trkpt lat="46.38256" lon="5.69609">
        <ele>613.6</ele>
        <time>2014-04-30T11:26:11.237Z</time>
      </trkpt>
      <trkpt lat="46.38268" lon="5.69667">
        <ele>614.4</ele>
        <time>2014-04-30T11:26:14.243Z</time>
      </trkpt>
      <trkpt lat="46.38276" lon="5.69735">
        <ele>612.7</ele>
        <time>2014-04-30T11:26:17.260Z</time>
      </trkpt>
      <trkpt lat="46.38288" lon="5.69795">
        <ele>613.4</ele>
        <time>2014-04-30T11:26:20.252Z</time>
      </trkpt>
      <trkpt lat="46.38308" lon="5.69839">
        <ele>610.9</ele>
        <time>2014-04-30T11:26:23.238Z</time>
      </trkpt>
      <trkpt lat="46.3832" lon="5.69881">
        <ele>609.7</ele>
        <time>2014-04-30T11:26:26.236Z</time>
      </trkpt>
      <trkpt lat="46.38334" lon="5.69915">
        <ele>609.7</ele>
        <time>2014-04-30T11:26:29.236Z</time>
      </trkpt>
      <trkpt lat="46.3835" lon="5.69951">
        <ele>608.9</ele>
        <time>2014-04-30T11:26:32.237Z</time>
      </trkpt>
      <trkpt lat="46.38372" lon="5.69988">
        <ele>605.8</ele>
        <time>2014-04-30T11:26:35.233Z</time>
      </trkpt>
      <trkpt lat="46.38389" lon="5.70029">
        <ele>610.6</ele>
        <time>2014-04-30T11:26:38.234Z</time>
      </trkpt>
      <trkpt lat="46.38413" lon="5.70048">
        <ele>611.3</ele>
        <time>2014-04-30T11:26:41.250Z</time>
      </trkpt>
      <trkpt lat="46.38434" lon="5.70054">
        <ele>609.6</ele>
        <time>2014-04-30T11:26:44.414Z</time>
      </trkpt>
      <trkpt lat="46.38447" lon="5.70074">
        <ele>607.8</ele>
        <time>2014-04-30T11:26:47.256Z</time>
      </trkpt>
      <trkpt lat="46.38461" lon="5.70109">
        <ele>605</ele>
        <time>2014-04-30T11:26:50.373Z</time>
      </trkpt>
      <trkpt lat="46.38473" lon="5.70146">
        <ele>602.1</ele>
        <time>2014-04-30T11:26:53.275Z</time>
      </trkpt>
      <trkpt lat="46.38485" lon="5.7018">
        <ele>600.2</ele>
        <time>2014-04-30T11:26:56.282Z</time>
      </trkpt>
      <trkpt lat="46.38497" lon="5.70213">
        <ele>597.5</ele>
        <time>2014-04-30T11:26:59.352Z</time>
      </trkpt>
      <trkpt lat="46.38512" lon="5.70248">
        <ele>595.8</ele>
        <time>2014-04-30T11:27:02.243Z</time>
      </trkpt>
      <trkpt lat="46.38533" lon="5.70281">
        <ele>594.5</ele>
        <time>2014-04-30T11:27:05.369Z</time>
      </trkpt>
      <trkpt lat="46.38557" lon="5.70315">
        <ele>592.8</ele>
        <time>2014-04-30T11:27:08.243Z</time>
      </trkpt>
      <trkpt lat="46.38575" lon="5.70355">
        <ele>591.9</ele>
        <time>2014-04-30T11:27:11.394Z</time>
      </trkpt>
      <trkpt lat="46.38601" lon="5.70392">
        <ele>592.8</ele>
        <time>2014-04-30T11:27:14.247Z</time>
      </trkpt>
      <trkpt lat="46.3862" lon="5.70431">
        <ele>590</ele>
        <time>2014-04-30T11:27:17.240Z</time>
      </trkpt>
      <trkpt lat="46.38618" lon="5.70481">
        <ele>590.6</ele>
        <time>2014-04-30T11:27:20.240Z</time>
      </trkpt>
      <trkpt lat="46.38611" lon="5.70527">
        <ele>588.1</ele>
        <time>2014-04-30T11:27:23.244Z</time>
      </trkpt>
      <trkpt lat="46.38604" lon="5.70574">
        <ele>581.8</ele>
        <time>2014-04-30T11:27:26.344Z</time>
      </trkpt>
      <trkpt lat="46.38598" lon="5.70623">
        <ele>579.7</ele>
        <time>2014-04-30T11:27:29.344Z</time>
      </trkpt>
      <trkpt lat="46.38594" lon="5.70669">
        <ele>576.8</ele>
        <time>2014-04-30T11:27:32.353Z</time>
      </trkpt>
      <trkpt lat="46.3859" lon="5.70709">
        <ele>572.8</ele>
        <time>2014-04-30T11:27:35.355Z</time>
      </trkpt>
      <trkpt lat="46.38592" lon="5.70753">
        <ele>569.8</ele>
        <time>2014-04-30T11:27:38.344Z</time>
      </trkpt>
      <trkpt lat="46.38602" lon="5.70796">
        <ele>567.7</ele>
        <time>2014-04-30T11:27:41.343Z</time>
      </trkpt>
      <trkpt lat="46.38616" lon="5.70838">
        <ele>565.2</ele>
        <time>2014-04-30T11:27:44.343Z</time>
      </trkpt>
      <trkpt lat="46.38633" lon="5.7088">
        <ele>562</ele>
        <time>2014-04-30T11:27:47.297Z</time>
      </trkpt>
      <trkpt lat="46.38654" lon="5.70924">
        <ele>561</ele>
        <time>2014-04-30T11:27:50.233Z</time>
      </trkpt>
      <trkpt lat="46.38677" lon="5.70963">
        <ele>561.4</ele>
        <time>2014-04-30T11:27:53.175Z</time>
      </trkpt>
      <trkpt lat="46.38698" lon="5.70996">
        <ele>560.4</ele>
        <time>2014-04-30T11:27:56.123Z</time>
      </trkpt>
      <trkpt lat="46.38715" lon="5.71023">
        <ele>560.1</ele>
        <time>2014-04-30T11:27:59.055Z</time>
      </trkpt>
      <trkpt lat="46.38723" lon="5.71049">
        <ele>558.8</ele>
        <time>2014-04-30T11:28:01.994Z</time>
      </trkpt>
      <trkpt lat="46.38715" lon="5.71064">
        <ele>553.8</ele>
        <time>2014-04-30T11:28:04.984Z</time>
      </trkpt>
      <trkpt lat="46.387" lon="5.71066">
        <ele>551.7</ele>
        <time>2014-04-30T11:28:07.982Z</time>
      </trkpt>
      <trkpt lat="46.38681" lon="5.71078">
        <ele>546.1</ele>
        <time>2014-04-30T11:28:10.983Z</time>
      </trkpt>
      <trkpt lat="46.38667" lon="5.71102">
        <ele>543.7</ele>
        <time>2014-04-30T11:28:13.995Z</time>
      </trkpt>
      <trkpt lat="46.38663" lon="5.71131">
        <ele>538.6</ele>
        <time>2014-04-30T11:28:16.986Z</time>
      </trkpt>
      <trkpt lat="46.38664" lon="5.7116">
        <ele>533.3</ele>
        <time>2014-04-30T11:28:20.024Z</time>
      </trkpt>
      <trkpt lat="46.38652" lon="5.71194">
        <ele>530.6</ele>
        <time>2014-04-30T11:28:23.029Z</time>
      </trkpt>
      <trkpt lat="46.38642" lon="5.71218">
        <ele>530.5</ele>
        <time>2014-04-30T11:28:25.988Z</time>
      </trkpt>
      <trkpt lat="46.38632" lon="5.71237">
        <ele>528.7</ele>
        <time>2014-04-30T11:28:28.972Z</time>
      </trkpt>
      <trkpt lat="46.38623" lon="5.71256">
        <ele>528</ele>
        <time>2014-04-30T11:28:31.979Z</time>
      </trkpt>
      <trkpt lat="46.38622" lon="5.71293">
        <ele>524.7</ele>
        <time>2014-04-30T11:28:34.983Z</time>
      </trkpt>
      <trkpt lat="46.3862" lon="5.71331">
        <ele>525.2</ele>
        <time>2014-04-30T11:28:37.989Z</time>
      </trkpt>
      <trkpt lat="46.38613" lon="5.71363">
        <ele>518.5</ele>
        <time>2014-04-30T11:28:40.980Z</time>
      </trkpt>
      <trkpt lat="46.38614" lon="5.714">
        <ele>515.5</ele>
        <time>2014-04-30T11:28:43.983Z</time>
      </trkpt>
      <trkpt lat="46.38617" lon="5.71432">
        <ele>513.4</ele>
        <time>2014-04-30T11:28:46.984Z</time>
      </trkpt>
      <trkpt lat="46.38622" lon="5.71463">
        <ele>511.9</ele>
        <time>2014-04-30T11:28:49.989Z</time>
      </trkpt>
      <trkpt lat="46.3863" lon="5.71492">
        <ele>510.5</ele>
        <time>2014-04-30T11:28:52.979Z</time>
      </trkpt>
      <trkpt lat="46.38645" lon="5.71521">
        <ele>510</ele>
        <time>2014-04-30T11:28:55.985Z</time>
      </trkpt>
      <trkpt lat="46.38658" lon="5.71536">
        <ele>510.5</ele>
        <time>2014-04-30T11:28:58.982Z</time>
      </trkpt>
      <trkpt lat="46.38662" lon="5.71542">
        <ele>512.7</ele>
        <time>2014-04-30T11:29:02.026Z</time>
      </trkpt>
      <trkpt lat="46.38665" lon="5.71546">
        <ele>511</ele>
        <time>2014-04-30T11:29:04.987Z</time>
      </trkpt>
      <trkpt lat="46.38665" lon="5.71549">
        <ele>509.2</ele>
        <time>2014-04-30T11:29:08.031Z</time>
      </trkpt>
      <trkpt lat="46.38664" lon="5.71547">
        <ele>509.2</ele>
        <time>2014-04-30T11:29:11.051Z</time>
      </trkpt>
      <trkpt lat="46.38651" lon="5.71538">
        <ele>506.1</ele>
        <time>2014-04-30T11:29:14.003Z</time>
      </trkpt>
      <trkpt lat="46.38632" lon="5.71512">
        <ele>502.6</ele>
        <time>2014-04-30T11:29:17.008Z</time>
      </trkpt>
      <trkpt lat="46.38604" lon="5.71468">
        <ele>498.2</ele>
        <time>2014-04-30T11:29:20.062Z</time>
      </trkpt>
      <trkpt lat="46.3857" lon="5.71413">
        <ele>491.5</ele>
        <time>2014-04-30T11:29:23.018Z</time>
      </trkpt>
      <trkpt lat="46.38526" lon="5.71364">
        <ele>485.6</ele>
        <time>2014-04-30T11:29:25.984Z</time>
      </trkpt>
      <trkpt lat="46.38474" lon="5.71329">
        <ele>479.8</ele>
        <time>2014-04-30T11:29:28.984Z</time>
      </trkpt>
      <trkpt lat="46.38424" lon="5.71285">
        <ele>474.7</ele>
        <time>2014-04-30T11:29:32.042Z</time>
      </trkpt>
      <trkpt lat="46.38384" lon="5.71223">
        <ele>470.9</ele>
        <time>2014-04-30T11:29:34.974Z</time>
      </trkpt>
      <trkpt lat="46.38332" lon="5.71175">
        <ele>465.1</ele>
        <time>2014-04-30T11:29:41.013Z</time>
      </trkpt>
      <trkpt lat="46.38216" lon="5.71119">
        <ele>458.4</ele>
        <time>2014-04-30T11:29:43.991Z</time>
      </trkpt>
      <trkpt lat="46.38155" lon="5.71108">
        <ele>455.6</ele>
        <time>2014-04-30T11:29:46.982Z</time>
      </trkpt>
      <trkpt lat="46.38093" lon="5.711">
        <ele>454.1</ele>
        <time>2014-04-30T11:29:49.996Z</time>
      </trkpt>
      <trkpt lat="46.38037" lon="5.71079">
        <ele>450.5</ele>
        <time>2014-04-30T11:29:52.984Z</time>
      </trkpt>
      <trkpt lat="46.3798" lon="5.71048">
        <ele>445.8</ele>
        <time>2014-04-30T11:29:55.984Z</time>
      </trkpt>
      <trkpt lat="46.37927" lon="5.71005">
        <ele>441.7</ele>
        <time>2014-04-30T11:29:58.985Z</time>
      </trkpt>
      <trkpt lat="46.37874" lon="5.70957">
        <ele>437.5</ele>
        <time>2014-04-30T11:30:02.020Z</time>
      </trkpt>
      <trkpt lat="46.37821" lon="5.70915">
        <ele>435.9</ele>
        <time>2014-04-30T11:30:05.000Z</time>
      </trkpt>
      <trkpt lat="46.37766" lon="5.70876">
        <ele>432.3</ele>
        <time>2014-04-30T11:30:07.985Z</time>
      </trkpt>
      <trkpt lat="46.37706" lon="5.70854">
        <ele>428.3</ele>
        <time>2014-04-30T11:30:11.012Z</time>
      </trkpt>
      <trkpt lat="46.37641" lon="5.70847">
        <ele>423.5</ele>
        <time>2014-04-30T11:30:14.010Z</time>
      </trkpt>
      <trkpt lat="46.37577" lon="5.70851">
        <ele>418.2</ele>
        <time>2014-04-30T11:30:17.042Z</time>
      </trkpt>
      <trkpt lat="46.37556" lon="5.7085">
        <ele>416.4</ele>
        <time>2014-04-30T11:30:17.981Z</time>
      </trkpt>
      <trkpt lat="46.37556" lon="5.7085">
        <ele>416.4</ele>
        <time>2014-04-30T11:30:21.031Z</time>
      </trkpt>
      <trkpt lat="46.37445" lon="5.70787">
        <ele>406.1</ele>
        <time>2014-04-30T11:30:24.040Z</time>
      </trkpt>
      <trkpt lat="46.37397" lon="5.70735">
        <ele>400.7</ele>
        <time>2014-04-30T11:30:26.998Z</time>
      </trkpt>
      <trkpt lat="46.37343" lon="5.70693">
        <ele>392.6</ele>
        <time>2014-04-30T11:30:30.008Z</time>
      </trkpt>
      <trkpt lat="46.37299" lon="5.70659">
        <ele>387.3</ele>
        <time>2014-04-30T11:30:33.035Z</time>
      </trkpt>
      <trkpt lat="46.37265" lon="5.70625">
        <ele>384.3</ele>
        <time>2014-04-30T11:30:36.016Z</time>
      </trkpt>
      <trkpt lat="46.37236" lon="5.70593">
        <ele>381.2</ele>
        <time>2014-04-30T11:30:38.986Z</time>
      </trkpt>
      <trkpt lat="46.37207" lon="5.70557">
        <ele>376.8</ele>
        <time>2014-04-30T11:30:41.999Z</time>
      </trkpt>
      <trkpt lat="46.37181" lon="5.70519">
        <ele>373.6</ele>
        <time>2014-04-30T11:30:44.983Z</time>
      </trkpt>
      <trkpt lat="46.37145" lon="5.70492">
        <ele>369.3</ele>
        <time>2014-04-30T11:30:47.986Z</time>
      </trkpt>
      <trkpt lat="46.37108" lon="5.70473">
        <ele>365.8</ele>
        <time>2014-04-30T11:30:50.986Z</time>
      </trkpt>
      <trkpt lat="46.37076" lon="5.70456">
        <ele>363</ele>
        <time>2014-04-30T11:30:53.986Z</time>
      </trkpt>
      <trkpt lat="46.37043" lon="5.70432">
        <ele>359.4</ele>
        <time>2014-04-30T11:30:56.988Z</time>
      </trkpt>
      <trkpt lat="46.37009" lon="5.70405">
        <ele>356.2</ele>
        <time>2014-04-30T11:31:00.054Z</time>
      </trkpt>
      <trkpt lat="46.36971" lon="5.70385">
        <ele>351.4</ele>
        <time>2014-04-30T11:31:03.052Z</time>
      </trkpt>
      <trkpt lat="46.36933" lon="5.70378">
        <ele>348.2</ele>
        <time>2014-04-30T11:31:05.994Z</time>
      </trkpt>
      <trkpt lat="46.36898" lon="5.70381">
        <ele>344.8</ele>
        <time>2014-04-30T11:31:09.027Z</time>
      </trkpt>
      <trkpt lat="46.36863" lon="5.7039">
        <ele>342.9</ele>
        <time>2014-04-30T11:31:12.052Z</time>
      </trkpt>
      <trkpt lat="46.36828" lon="5.70401">
        <ele>341.2</ele>
        <time>2014-04-30T11:31:14.991Z</time>
      </trkpt>
      <trkpt lat="46.36789" lon="5.70413">
        <ele>337.7</ele>
        <time>2014-04-30T11:31:18.009Z</time>
      </trkpt>
      <trkpt lat="46.36748" lon="5.70425">
        <ele>335</ele>
        <time>2014-04-30T11:31:21.059Z</time>
      </trkpt>
      <trkpt lat="46.36702" lon="5.70437">
        <ele>332.8</ele>
        <time>2014-04-30T11:31:24.013Z</time>
      </trkpt>
      <trkpt lat="46.36654" lon="5.70451">
        <ele>330.6</ele>
        <time>2014-04-30T11:31:26.984Z</time>
      </trkpt>
      <trkpt lat="46.3661" lon="5.70464">
        <ele>331.4</ele>
        <time>2014-04-30T11:31:30.064Z</time>
      </trkpt>
      <trkpt lat="46.36568" lon="5.70475">
        <ele>332.3</ele>
        <time>2014-04-30T11:31:33.023Z</time>
      </trkpt>
      <trkpt lat="46.3653" lon="5.70487">
        <ele>333.2</ele>
        <time>2014-04-30T11:31:35.984Z</time>
      </trkpt>
      <trkpt lat="46.36493" lon="5.70501">
        <ele>335.3</ele>
        <time>2014-04-30T11:31:39.080Z</time>
      </trkpt>
      <trkpt lat="46.36461" lon="5.70518">
        <ele>336.9</ele>
        <time>2014-04-30T11:31:42.002Z</time>
      </trkpt>
      <trkpt lat="46.36433" lon="5.70538">
        <ele>338.2</ele>
        <time>2014-04-30T11:31:44.992Z</time>
      </trkpt>
      <trkpt lat="46.36408" lon="5.70555">
        <ele>338.3</ele>
        <time>2014-04-30T11:31:47.986Z</time>
      </trkpt>
      <trkpt lat="46.36386" lon="5.70573">
        <ele>337.3</ele>
        <time>2014-04-30T11:31:50.985Z</time>
      </trkpt>
      <trkpt lat="46.36362" lon="5.70592">
        <ele>338.3</ele>
        <time>2014-04-30T11:31:53.980Z</time>
      </trkpt>
      <trkpt lat="46.36343" lon="5.7061">
        <ele>338.5</ele>
        <time>2014-04-30T11:31:56.985Z</time>
      </trkpt>
      <trkpt lat="46.36321" lon="5.70625">
        <ele>338.5</ele>
        <time>2014-04-30T11:32:00.002Z</time>
      </trkpt>
      <trkpt lat="46.36304" lon="5.70637">
        <ele>336.5</ele>
        <time>2014-04-30T11:32:02.986Z</time>
      </trkpt>
      <trkpt lat="46.36291" lon="5.70647">
        <ele>335.6</ele>
        <time>2014-04-30T11:32:05.998Z</time>
      </trkpt>
      <trkpt lat="46.36285" lon="5.70651">
        <ele>335.9</ele>
        <time>2014-04-30T11:32:09.056Z</time>
      </trkpt>
      <trkpt lat="46.3628" lon="5.70656">
        <ele>336.3</ele>
        <time>2014-04-30T11:32:12.017Z</time>
      </trkpt>
      <trkpt lat="46.36267" lon="5.70665">
        <ele>336.8</ele>
        <time>2014-04-30T11:32:14.987Z</time>
      </trkpt>
      <trkpt lat="46.36256" lon="5.70674">
        <ele>337.5</ele>
        <time>2014-04-30T11:32:17.996Z</time>
      </trkpt>
      <trkpt lat="46.36248" lon="5.70678">
        <ele>338.5</ele>
        <time>2014-04-30T11:32:21.018Z</time>
      </trkpt>
      <trkpt lat="46.36242" lon="5.70679">
        <ele>339.7</ele>
        <time>2014-04-30T11:32:23.985Z</time>
      </trkpt>
      <trkpt lat="46.36229" lon="5.70663">
        <ele>338.8</ele>
        <time>2014-04-30T11:32:27.087Z</time>
      </trkpt>
      <trkpt lat="46.36213" lon="5.70623">
        <ele>338.8</ele>
        <time>2014-04-30T11:32:30.021Z</time>
      </trkpt>
      <trkpt lat="46.36192" lon="5.70568">
        <ele>338.3</ele>
        <time>2014-04-30T11:32:32.993Z</time>
      </trkpt>
      <trkpt lat="46.36164" lon="5.70504">
        <ele>335.5</ele>
        <time>2014-04-30T11:32:35.978Z</time>
      </trkpt>
      <trkpt lat="46.36125" lon="5.70447">
        <ele>334.1</ele>
        <time>2014-04-30T11:32:38.990Z</time>
      </trkpt>
      <trkpt lat="46.36087" lon="5.70391">
        <ele>331.3</ele>
        <time>2014-04-30T11:32:41.980Z</time>
      </trkpt>
      <trkpt lat="46.3605" lon="5.70326">
        <ele>333.3</ele>
        <time>2014-04-30T11:32:44.981Z</time>
      </trkpt>
      <trkpt lat="46.36011" lon="5.70252">
        <ele>333.8</ele>
        <time>2014-04-30T11:32:47.999Z</time>
      </trkpt>
      <trkpt lat="46.35968" lon="5.70179">
        <ele>333.9</ele>
        <time>2014-04-30T11:32:50.978Z</time>
      </trkpt>
      <trkpt lat="46.35916" lon="5.70099">
        <ele>334.3</ele>
        <time>2014-04-30T11:32:53.987Z</time>
      </trkpt>
      <trkpt lat="46.35864" lon="5.70012">
        <ele>336.4</ele>
        <time>2014-04-30T11:32:56.983Z</time>
      </trkpt>
      <trkpt lat="46.35807" lon="5.69928">
        <ele>336.3</ele>
        <time>2014-04-30T11:32:59.984Z</time>
      </trkpt>
      <trkpt lat="46.35747" lon="5.69856">
        <ele>333.1</ele>
        <time>2014-04-30T11:33:02.976Z</time>
      </trkpt>
      <trkpt lat="46.35687" lon="5.69786">
        <ele>332.1</ele>
        <time>2014-04-30T11:33:05.999Z</time>
      </trkpt>
      <trkpt lat="46.35634" lon="5.69704">
        <ele>332.6</ele>
        <time>2014-04-30T11:33:08.982Z</time>
      </trkpt>
      <trkpt lat="46.35583" lon="5.69623">
        <ele>333.4</ele>
        <time>2014-04-30T11:33:11.982Z</time>
      </trkpt>
      <trkpt lat="46.35533" lon="5.69551">
        <ele>329.6</ele>
        <time>2014-04-30T11:33:14.978Z</time>
      </trkpt>
      <trkpt lat="46.35488" lon="5.69488">
        <ele>328.4</ele>
        <time>2014-04-30T11:33:18.002Z</time>
      </trkpt>
      <trkpt lat="46.35451" lon="5.69434">
        <ele>329.8</ele>
        <time>2014-04-30T11:33:20.981Z</time>
      </trkpt>
      <trkpt lat="46.35396" lon="5.69359">
        <ele>336.4</ele>
        <time>2014-04-30T11:33:24.981Z</time>
      </trkpt>
      <trkpt lat="46.35355" lon="5.69311">
        <ele>334.6</ele>
        <time>2014-04-30T11:33:27.977Z</time>
      </trkpt>
      <trkpt lat="46.35314" lon="5.69272">
        <ele>336.7</ele>
        <time>2014-04-30T11:33:30.980Z</time>
      </trkpt>
      <trkpt lat="46.35267" lon="5.69242">
        <ele>340.6</ele>
        <time>2014-04-30T11:33:33.994Z</time>
      </trkpt>
      <trkpt lat="46.35218" lon="5.69217">
        <ele>338.1</ele>
        <time>2014-04-30T11:33:36.999Z</time>
      </trkpt>
      <trkpt lat="46.35172" lon="5.69212">
        <ele>336.9</ele>
        <time>2014-04-30T11:33:39.980Z</time>
      </trkpt>
      <trkpt lat="46.35122" lon="5.69206">
        <ele>333.7</ele>
        <time>2014-04-30T11:33:42.978Z</time>
      </trkpt>
      <trkpt lat="46.35069" lon="5.69217">
        <ele>333.1</ele>
        <time>2014-04-30T11:33:45.982Z</time>
      </trkpt>
      <trkpt lat="46.3502" lon="5.69235">
        <ele>332.3</ele>
        <time>2014-04-30T11:33:48.980Z</time>
      </trkpt>
      <trkpt lat="46.34971" lon="5.69262">
        <ele>330.6</ele>
        <time>2014-04-30T11:33:51.985Z</time>
      </trkpt>
      <trkpt lat="46.34927" lon="5.69274">
        <ele>328.4</ele>
        <time>2014-04-30T11:33:54.977Z</time>
      </trkpt>
      <trkpt lat="46.34876" lon="5.69279">
        <ele>328</ele>
        <time>2014-04-30T11:33:57.980Z</time>
      </trkpt>
      <trkpt lat="46.34828" lon="5.69264">
        <ele>331.5</ele>
        <time>2014-04-30T11:34:00.982Z</time>
      </trkpt>
      <trkpt lat="46.34784" lon="5.69231">
        <ele>335</ele>
        <time>2014-04-30T11:34:03.997Z</time>
      </trkpt>
      <trkpt lat="46.34737" lon="5.69211">
        <ele>333.1</ele>
        <time>2014-04-30T11:34:06.978Z</time>
      </trkpt>
      <trkpt lat="46.34671" lon="5.69184">
        <ele>331.4</ele>
        <time>2014-04-30T11:34:10.982Z</time>
      </trkpt>
      <trkpt lat="46.34616" lon="5.69162">
        <ele>329.1</ele>
        <time>2014-04-30T11:34:13.981Z</time>
      </trkpt>
      <trkpt lat="46.34565" lon="5.69141">
        <ele>329.9</ele>
        <time>2014-04-30T11:34:16.983Z</time>
      </trkpt>
      <trkpt lat="46.34513" lon="5.69132">
        <ele>331.6</ele>
        <time>2014-04-30T11:34:19.977Z</time>
      </trkpt>
      <trkpt lat="46.3446" lon="5.69125">
        <ele>332</ele>
        <time>2014-04-30T11:34:22.979Z</time>
      </trkpt>
      <trkpt lat="46.344" lon="5.69118">
        <ele>332.8</ele>
        <time>2014-04-30T11:34:25.985Z</time>
      </trkpt>
      <trkpt lat="46.34357" lon="5.69112">
        <ele>331.7</ele>
        <time>2014-04-30T11:34:28.035Z</time>
      </trkpt>
      <trkpt lat="46.34292" lon="5.69102">
        <ele>331.3</ele>
        <time>2014-04-30T11:34:31.006Z</time>
      </trkpt>
      <trkpt lat="46.34226" lon="5.69095">
        <ele>329.4</ele>
        <time>2014-04-30T11:34:33.981Z</time>
      </trkpt>
      <trkpt lat="46.34156" lon="5.69087">
        <ele>326.3</ele>
        <time>2014-04-30T11:34:36.988Z</time>
      </trkpt>
      <trkpt lat="46.34082" lon="5.69076">
        <ele>324.2</ele>
        <time>2014-04-30T11:34:40.036Z</time>
      </trkpt>
      <trkpt lat="46.34005" lon="5.6906">
        <ele>322.3</ele>
        <time>2014-04-30T11:34:43.024Z</time>
      </trkpt>
      <trkpt lat="46.33929" lon="5.69045">
        <ele>323</ele>
        <time>2014-04-30T11:34:45.985Z</time>
      </trkpt>
      <trkpt lat="46.33854" lon="5.69015">
        <ele>323</ele>
        <time>2014-04-30T11:34:49.019Z</time>
      </trkpt>
      <trkpt lat="46.33789" lon="5.68948">
        <ele>324.1</ele>
        <time>2014-04-30T11:34:52.036Z</time>
      </trkpt>
      <trkpt lat="46.33738" lon="5.68862">
        <ele>323.8</ele>
        <time>2014-04-30T11:34:55.000Z</time>
      </trkpt>
      <trkpt lat="46.33689" lon="5.68776">
        <ele>322.4</ele>
        <time>2014-04-30T11:34:57.986Z</time>
      </trkpt>
      <trkpt lat="46.33645" lon="5.68683">
        <ele>321.8</ele>
        <time>2014-04-30T11:35:01.010Z</time>
      </trkpt>
      <trkpt lat="46.33606" lon="5.68585">
        <ele>321.3</ele>
        <time>2014-04-30T11:35:04.011Z</time>
      </trkpt>
      <trkpt lat="46.3357" lon="5.68487">
        <ele>322.9</ele>
        <time>2014-04-30T11:35:06.989Z</time>
      </trkpt>
      <trkpt lat="46.33537" lon="5.68389">
        <ele>323.2</ele>
        <time>2014-04-30T11:35:09.987Z</time>
      </trkpt>
      <trkpt lat="46.33509" lon="5.68294">
        <ele>324.2</ele>
        <time>2014-04-30T11:35:13.021Z</time>
      </trkpt>
      <trkpt lat="46.33483" lon="5.68205">
        <ele>326</ele>
        <time>2014-04-30T11:35:15.978Z</time>
      </trkpt>
      <trkpt lat="46.33445" lon="5.6813">
        <ele>328.7</ele>
        <time>2014-04-30T11:35:19.003Z</time>
      </trkpt>
      <trkpt lat="46.33399" lon="5.68076">
        <ele>330</ele>
        <time>2014-04-30T11:35:21.996Z</time>
      </trkpt>
      <trkpt lat="46.3335" lon="5.68036">
        <ele>330.1</ele>
        <time>2014-04-30T11:35:24.980Z</time>
      </trkpt>
      <trkpt lat="46.33302" lon="5.68">
        <ele>329.6</ele>
        <time>2014-04-30T11:35:27.978Z</time>
      </trkpt>
      <trkpt lat="46.33248" lon="5.67968">
        <ele>327.5</ele>
        <time>2014-04-30T11:35:30.981Z</time>
      </trkpt>
      <trkpt lat="46.33194" lon="5.6792">
        <ele>325</ele>
        <time>2014-04-30T11:35:33.995Z</time>
      </trkpt>
      <trkpt lat="46.33141" lon="5.67866">
        <ele>324.6</ele>
        <time>2014-04-30T11:35:36.991Z</time>
      </trkpt>
      <trkpt lat="46.33094" lon="5.67815">
        <ele>325</ele>
        <time>2014-04-30T11:35:39.978Z</time>
      </trkpt>
      <trkpt lat="46.3305" lon="5.6775">
        <ele>321.9</ele>
        <time>2014-04-30T11:35:43.006Z</time>
      </trkpt>
      <trkpt lat="46.3301" lon="5.6769">
        <ele>319.4</ele>
        <time>2014-04-30T11:35:45.986Z</time>
      </trkpt>
      <trkpt lat="46.32972" lon="5.67633">
        <ele>320.2</ele>
        <time>2014-04-30T11:35:48.985Z</time>
      </trkpt>
      <trkpt lat="46.3294" lon="5.67568">
        <ele>319.9</ele>
        <time>2014-04-30T11:35:51.985Z</time>
      </trkpt>
      <trkpt lat="46.32903" lon="5.67504">
        <ele>319.2</ele>
        <time>2014-04-30T11:35:54.988Z</time>
      </trkpt>
      <trkpt lat="46.32867" lon="5.67438">
        <ele>322.6</ele>
        <time>2014-04-30T11:35:57.979Z</time>
      </trkpt>
      <trkpt lat="46.32832" lon="5.67374">
        <ele>324.2</ele>
        <time>2014-04-30T11:36:00.979Z</time>
      </trkpt>
      <trkpt lat="46.32797" lon="5.67314">
        <ele>320.2</ele>
        <time>2014-04-30T11:36:03.994Z</time>
      </trkpt>
      <trkpt lat="46.32763" lon="5.67253">
        <ele>322.8</ele>
        <time>2014-04-30T11:36:06.990Z</time>
      </trkpt>
      <trkpt lat="46.32724" lon="5.67193">
        <ele>325.4</ele>
        <time>2014-04-30T11:36:09.978Z</time>
      </trkpt>
      <trkpt lat="46.32678" lon="5.67149">
        <ele>319.7</ele>
        <time>2014-04-30T11:36:12.983Z</time>
      </trkpt>
      <trkpt lat="46.32631" lon="5.67115">
        <ele>323.6</ele>
        <time>2014-04-30T11:36:15.980Z</time>
      </trkpt>
      <trkpt lat="46.32585" lon="5.67091">
        <ele>324.8</ele>
        <time>2014-04-30T11:36:18.997Z</time>
      </trkpt>
      <trkpt lat="46.32544" lon="5.67072">
        <ele>324.4</ele>
        <time>2014-04-30T11:36:21.978Z</time>
      </trkpt>
      <trkpt lat="46.32515" lon="5.67054">
        <ele>320.3</ele>
        <time>2014-04-30T11:36:24.981Z</time>
      </trkpt>
      <trkpt lat="46.32487" lon="5.6703">
        <ele>323</ele>
        <time>2014-04-30T11:36:27.980Z</time>
      </trkpt>
      <trkpt lat="46.3246" lon="5.66974">
        <ele>319.7</ele>
        <time>2014-04-30T11:36:30.990Z</time>
      </trkpt>
      <trkpt lat="46.32425" lon="5.66903">
        <ele>323.2</ele>
        <time>2014-04-30T11:36:33.978Z</time>
      </trkpt>
      <trkpt lat="46.32402" lon="5.66806">
        <ele>323.6</ele>
        <time>2014-04-30T11:36:36.977Z</time>
      </trkpt>
      <trkpt lat="46.32361" lon="5.66742">
        <ele>324.3</ele>
        <time>2014-04-30T11:36:39.980Z</time>
      </trkpt>
      <trkpt lat="46.3233" lon="5.6667">
        <ele>327.7</ele>
        <time>2014-04-30T11:36:42.982Z</time>
      </trkpt>
      <trkpt lat="46.32293" lon="5.66616">
        <ele>325.6</ele>
        <time>2014-04-30T11:36:45.980Z</time>
      </trkpt>
      <trkpt lat="46.32252" lon="5.66582">
        <ele>328</ele>
        <time>2014-04-30T11:36:48.978Z</time>
      </trkpt>
      <trkpt lat="46.32214" lon="5.6654">
        <ele>326.9</ele>
        <time>2014-04-30T11:36:51.987Z</time>
      </trkpt>
      <trkpt lat="46.32209" lon="5.66446">
        <ele>332.2</ele>
        <time>2014-04-30T11:36:54.981Z</time>
      </trkpt>
      <trkpt lat="46.3219" lon="5.66376">
        <ele>335.8</ele>
        <time>2014-04-30T11:36:57.978Z</time>
      </trkpt>
      <trkpt lat="46.32151" lon="5.6632">
        <ele>335.3</ele>
        <time>2014-04-30T11:37:00.977Z</time>
      </trkpt>
      <trkpt lat="46.32105" lon="5.66274">
        <ele>335.1</ele>
        <time>2014-04-30T11:37:03.979Z</time>
      </trkpt>
      <trkpt lat="46.32065" lon="5.66233">
        <ele>335.9</ele>
        <time>2014-04-30T11:37:06.976Z</time>
      </trkpt>
      <trkpt lat="46.32032" lon="5.66184">
        <ele>333.2</ele>
        <time>2014-04-30T11:37:09.978Z</time>
      </trkpt>
      <trkpt lat="46.31993" lon="5.66137">
        <ele>331.8</ele>
        <time>2014-04-30T11:37:12.976Z</time>
      </trkpt>
      <trkpt lat="46.3197" lon="5.66097">
        <ele>332</ele>
        <time>2014-04-30T11:37:15.984Z</time>
      </trkpt>
      <trkpt lat="46.31947" lon="5.6607">
        <ele>335.6</ele>
        <time>2014-04-30T11:37:18.982Z</time>
      </trkpt>
      <trkpt lat="46.31932" lon="5.66047">
        <ele>334.8</ele>
        <time>2014-04-30T11:37:21.980Z</time>
      </trkpt>
      <trkpt lat="46.31927" lon="5.6604">
        <ele>335.8</ele>
        <time>2014-04-30T11:37:24.987Z</time>
      </trkpt>
      <trkpt lat="46.31964" lon="5.66072">
        <ele>334.5</ele>
        <time>2014-04-30T11:37:27.981Z</time>
      </trkpt>
      <trkpt lat="46.32009" lon="5.66111">
        <ele>329.7</ele>
        <time>2014-04-30T11:37:30.987Z</time>
      </trkpt>
      <trkpt lat="46.32048" lon="5.66149">
        <ele>326.3</ele>
        <time>2014-04-30T11:37:33.979Z</time>
      </trkpt>
      <trkpt lat="46.32087" lon="5.66172">
        <ele>319.8</ele>
        <time>2014-04-30T11:37:36.998Z</time>
      </trkpt>
      <trkpt lat="46.32112" lon="5.66194">
        <ele>318.8</ele>
        <time>2014-04-30T11:37:39.980Z</time>
      </trkpt>
      <trkpt lat="46.32133" lon="5.66218">
        <ele>317.6</ele>
        <time>2014-04-30T11:37:42.987Z</time>
      </trkpt>
      <trkpt lat="46.32161" lon="5.66196">
        <ele>319.8</ele>
        <time>2014-04-30T11:37:45.982Z</time>
      </trkpt>
      <trkpt lat="46.32183" lon="5.6617">
        <ele>317.6</ele>
        <time>2014-04-30T11:37:48.996Z</time>
      </trkpt>
      <trkpt lat="46.32211" lon="5.6615">
        <ele>315.7</ele>
        <time>2014-04-30T11:37:51.981Z</time>
      </trkpt>
      <trkpt lat="46.3223" lon="5.66134">
        <ele>315.5</ele>
        <time>2014-04-30T11:37:54.979Z</time>
      </trkpt>
      <trkpt lat="46.32252" lon="5.66122">
        <ele>314.5</ele>
        <time>2014-04-30T11:37:57.977Z</time>
      </trkpt>
      <trkpt lat="46.32278" lon="5.66106">
        <ele>313.6</ele>
        <time>2014-04-30T11:38:00.982Z</time>
      </trkpt>
      <trkpt lat="46.32302" lon="5.66087">
        <ele>313.7</ele>
        <time>2014-04-30T11:38:03.979Z</time>
      </trkpt>
      <trkpt lat="46.32322" lon="5.66093">
        <ele>310.4</ele>
        <time>2014-04-30T11:38:06.978Z</time>
      </trkpt>
      <trkpt lat="46.32336" lon="5.66137">
        <ele>311.9</ele>
        <time>2014-04-30T11:38:09.980Z</time>
      </trkpt>
      <trkpt lat="46.3235" lon="5.66181">
        <ele>312.8</ele>
        <time>2014-04-30T11:38:12.979Z</time>
      </trkpt>
      <trkpt lat="46.32359" lon="5.66228">
        <ele>312.4</ele>
        <time>2014-04-30T11:38:15.980Z</time>
      </trkpt>
      <trkpt lat="46.32357" lon="5.66277">
        <ele>316.4</ele>
        <time>2014-04-30T11:38:18.981Z</time>
      </trkpt>
      <trkpt lat="46.32362" lon="5.6632">
        <ele>316.4</ele>
        <time>2014-04-30T11:38:21.978Z</time>
      </trkpt>
      <trkpt lat="46.32365" lon="5.66356">
        <ele>314.9</ele>
        <time>2014-04-30T11:38:24.981Z</time>
      </trkpt>
      <trkpt lat="46.3238" lon="5.66353">
        <ele>315.2</ele>
        <time>2014-04-30T11:38:27.981Z</time>
      </trkpt>
      <trkpt lat="46.32381" lon="5.66332">
        <ele>316.3</ele>
        <time>2014-04-30T11:38:30.983Z</time>
      </trkpt>
      <trkpt lat="46.32374" lon="5.66316">
        <ele>312.7</ele>
        <time>2014-04-30T11:38:33.980Z</time>
      </trkpt>
      <trkpt lat="46.32374" lon="5.66319">
        <ele>316.5</ele>
        <time>2014-04-30T11:38:36.998Z</time>
      </trkpt>
    </trkseg>
  </trk>
</gpx>